sensor_id;sensor_type;location;lat;lon;timestamp;temperature;humidity
698;DHT22;331;48.414;9.938;2022-07-25T00:01:11;24.50;74.90
698;DHT22;331;48.414;9.938;2022-07-25T00:03:37;24.40;74.90
698;DHT22;331;48.414;9.938;2022-07-25T00:06:04;24.40;75.00
698;DHT22;331;48.414;9.938;2022-07-25T00:08:31;24.40;75.00
698;DHT22;331;48.414;9.938;2022-07-25T00:11:00;24.40;75.10
698;DHT22;331;48.414;9.938;2022-07-25T00:13:26;24.30;75.10
698;DHT22;331;48.414;9.938;2022-07-25T00:15:53;24.30;75.10
698;DHT22;331;48.414;9.938;2022-07-25T00:18:20;24.30;75.20
698;DHT22;331;48.414;9.938;2022-07-25T00:20:47;24.20;75.20
698;DHT22;331;48.414;9.938;2022-07-25T00:23:14;24.20;75.20
698;DHT22;331;48.414;9.938;2022-07-25T00:25:40;24.10;75.20
698;DHT22;331;48.414;9.938;2022-07-25T00:28:09;24.10;75.20
698;DHT22;331;48.414;9.938;2022-07-25T00:30:35;24.10;75.40
698;DHT22;331;48.414;9.938;2022-07-25T00:33:02;24.10;75.50
698;DHT22;331;48.414;9.938;2022-07-25T00:35:29;24.00;75.50
698;DHT22;331;48.414;9.938;2022-07-25T00:37:56;24.00;75.00
698;DHT22;331;48.414;9.938;2022-07-25T00:40:23;24.00;75.60
698;DHT22;331;48.414;9.938;2022-07-25T00:42:50;24.00;75.60
698;DHT22;331;48.414;9.938;2022-07-25T00:45:18;23.90;75.60
698;DHT22;331;48.414;9.938;2022-07-25T00:47:45;23.90;75.60
698;DHT22;331;48.414;9.938;2022-07-25T00:50:11;23.90;75.80
698;DHT22;331;48.414;9.938;2022-07-25T00:52:38;23.80;75.70
698;DHT22;331;48.414;9.938;2022-07-25T00:55:05;23.80;75.80
698;DHT22;331;48.414;9.938;2022-07-25T00:57:32;23.80;75.80
698;DHT22;331;48.414;9.938;2022-07-25T00:59:59;23.80;75.80
698;DHT22;331;48.414;9.938;2022-07-25T01:02:27;23.70;75.70
698;DHT22;331;48.414;9.938;2022-07-25T01:04:54;23.70;75.70
698;DHT22;331;48.414;9.938;2022-07-25T01:07:22;23.60;75.60
698;DHT22;331;48.414;9.938;2022-07-25T01:09:49;23.60;75.70
698;DHT22;331;48.414;9.938;2022-07-25T01:12:16;23.60;75.80
698;DHT22;331;48.414;9.938;2022-07-25T01:14:43;23.60;75.80
698;DHT22;331;48.414;9.938;2022-07-25T01:17:09;23.50;75.70
698;DHT22;331;48.414;9.938;2022-07-25T01:22:06;23.50;75.20
698;DHT22;331;48.414;9.938;2022-07-25T01:24:33;23.40;75.70
698;DHT22;331;48.414;9.938;2022-07-25T01:27:00;23.40;75.70
698;DHT22;331;48.414;9.938;2022-07-25T01:29:27;23.40;75.70
698;DHT22;331;48.414;9.938;2022-07-25T01:31:54;23.30;75.70
698;DHT22;331;48.414;9.938;2022-07-25T01:34:20;23.30;75.80
698;DHT22;331;48.414;9.938;2022-07-25T01:36:47;23.30;75.90
698;DHT22;331;48.414;9.938;2022-07-25T01:39:15;23.20;75.90
698;DHT22;331;48.414;9.938;2022-07-25T01:41:42;23.20;76.00
698;DHT22;331;48.414;9.938;2022-07-25T01:44:09;23.20;76.00
698;DHT22;331;48.414;9.938;2022-07-25T01:46:36;23.20;76.10
698;DHT22;331;48.414;9.938;2022-07-25T01:49:03;23.10;76.00
698;DHT22;331;48.414;9.938;2022-07-25T01:51:30;23.10;76.10
698;DHT22;331;48.414;9.938;2022-07-25T01:53:57;23.10;76.10
698;DHT22;331;48.414;9.938;2022-07-25T01:56:26;23.10;76.20
698;DHT22;331;48.414;9.938;2022-07-25T01:58:53;23.00;76.10
698;DHT22;331;48.414;9.938;2022-07-25T02:01:20;23.00;76.20
698;DHT22;331;48.414;9.938;2022-07-25T02:03:47;23.00;76.20
698;DHT22;331;48.414;9.938;2022-07-25T02:06:13;23.00;76.20
698;DHT22;331;48.414;9.938;2022-07-25T02:08:40;22.90;76.20
698;DHT22;331;48.414;9.938;2022-07-25T02:11:07;22.90;76.30
698;DHT22;331;48.414;9.938;2022-07-25T02:13:35;22.90;76.40
698;DHT22;331;48.414;9.938;2022-07-25T02:16:04;22.90;76.40
698;DHT22;331;48.414;9.938;2022-07-25T02:18:31;22.80;76.40
698;DHT22;331;48.414;9.938;2022-07-25T02:20:58;22.80;76.40
698;DHT22;331;48.414;9.938;2022-07-25T02:23:25;22.80;76.40
698;DHT22;331;48.414;9.938;2022-07-25T02:25:51;22.70;76.40
698;DHT22;331;48.414;9.938;2022-07-25T02:28:18;22.70;76.40
698;DHT22;331;48.414;9.938;2022-07-25T02:30:46;22.70;76.50
698;DHT22;331;48.414;9.938;2022-07-25T02:33:13;22.70;76.60
698;DHT22;331;48.414;9.938;2022-07-25T02:35:40;22.60;76.50
698;DHT22;331;48.414;9.938;2022-07-25T02:38:07;22.60;76.70
698;DHT22;331;48.414;9.938;2022-07-25T02:40:35;22.60;76.70
698;DHT22;331;48.414;9.938;2022-07-25T02:43:02;22.60;76.70
698;DHT22;331;48.414;9.938;2022-07-25T02:45:28;22.50;76.70
698;DHT22;331;48.414;9.938;2022-07-25T02:47:57;22.50;76.70
698;DHT22;331;48.414;9.938;2022-07-25T02:50:24;22.50;76.80
698;DHT22;331;48.414;9.938;2022-07-25T02:52:51;22.50;76.80
698;DHT22;331;48.414;9.938;2022-07-25T02:55:18;22.40;76.80
698;DHT22;331;48.414;9.938;2022-07-25T02:57:45;22.40;76.80
698;DHT22;331;48.414;9.938;2022-07-25T03:00:12;22.40;76.90
698;DHT22;331;48.414;9.938;2022-07-25T03:02:39;22.40;77.00
698;DHT22;331;48.414;9.938;2022-07-25T03:05:09;22.40;77.00
698;DHT22;331;48.414;9.938;2022-07-25T03:07:36;22.30;77.00
698;DHT22;331;48.414;9.938;2022-07-25T03:10:04;22.30;77.00
698;DHT22;331;48.414;9.938;2022-07-25T03:12:31;22.30;77.00
698;DHT22;331;48.414;9.938;2022-07-25T03:14:58;22.20;77.00
698;DHT22;331;48.414;9.938;2022-07-25T03:17:25;22.20;77.00
698;DHT22;331;48.414;9.938;2022-07-25T03:19:52;22.20;77.10
698;DHT22;331;48.414;9.938;2022-07-25T03:22:24;22.20;77.10
698;DHT22;331;48.414;9.938;2022-07-25T03:24:51;22.20;77.20
698;DHT22;331;48.414;9.938;2022-07-25T03:27:17;22.10;77.10
698;DHT22;331;48.414;9.938;2022-07-25T03:29:44;22.10;77.20
698;DHT22;331;48.414;9.938;2022-07-25T03:32:11;22.10;77.30
698;DHT22;331;48.414;9.938;2022-07-25T03:34:38;22.00;77.30
698;DHT22;331;48.414;9.938;2022-07-25T03:37:05;22.00;77.30
698;DHT22;331;48.414;9.938;2022-07-25T03:39:36;22.00;77.30
698;DHT22;331;48.414;9.938;2022-07-25T03:42:03;22.00;77.40
698;DHT22;331;48.414;9.938;2022-07-25T03:44:29;21.90;77.30
698;DHT22;331;48.414;9.938;2022-07-25T03:46:56;21.90;77.40
698;DHT22;331;48.414;9.938;2022-07-25T03:49:23;21.90;77.30
698;DHT22;331;48.414;9.938;2022-07-25T03:51:50;21.90;77.40
698;DHT22;331;48.414;9.938;2022-07-25T03:54:17;21.90;77.40
698;DHT22;331;48.414;9.938;2022-07-25T03:56:46;21.80;77.40
698;DHT22;331;48.414;9.938;2022-07-25T03:59:14;21.80;77.70
698;DHT22;331;48.414;9.938;2022-07-25T04:01:41;21.80;78.10
698;DHT22;331;48.414;9.938;2022-07-25T04:04:08;21.80;78.20
698;DHT22;331;48.414;9.938;2022-07-25T04:06:35;21.80;78.30
698;DHT22;331;48.414;9.938;2022-07-25T04:09:03;21.70;78.20
698;DHT22;331;48.414;9.938;2022-07-25T04:11:30;21.70;78.10
698;DHT22;331;48.414;9.938;2022-07-25T04:13:58;21.70;78.30
698;DHT22;331;48.414;9.938;2022-07-25T04:16:25;21.60;78.30
698;DHT22;331;48.414;9.938;2022-07-25T04:18:53;21.60;78.40
698;DHT22;331;48.414;9.938;2022-07-25T04:21:20;21.60;78.30
698;DHT22;331;48.414;9.938;2022-07-25T04:23:47;21.50;78.30
698;DHT22;331;48.414;9.938;2022-07-25T04:26:14;21.50;78.40
698;DHT22;331;48.414;9.938;2022-07-25T04:28:41;21.50;78.60
698;DHT22;331;48.414;9.938;2022-07-25T04:31:10;21.50;78.50
698;DHT22;331;48.414;9.938;2022-07-25T04:33:37;21.50;78.60
698;DHT22;331;48.414;9.938;2022-07-25T04:36:04;21.40;78.60
698;DHT22;331;48.414;9.938;2022-07-25T04:38:31;21.40;78.80
698;DHT22;331;48.414;9.938;2022-07-25T04:40:58;21.40;78.70
698;DHT22;331;48.414;9.938;2022-07-25T04:43:24;21.40;78.70
698;DHT22;331;48.414;9.938;2022-07-25T04:45:51;21.40;78.70
698;DHT22;331;48.414;9.938;2022-07-25T04:48:19;21.40;78.80
698;DHT22;331;48.414;9.938;2022-07-25T04:50:46;21.30;78.90
698;DHT22;331;48.414;9.938;2022-07-25T04:53:13;21.30;78.80
698;DHT22;331;48.414;9.938;2022-07-25T04:55:40;21.30;78.60
698;DHT22;331;48.414;9.938;2022-07-25T04:58:07;21.20;78.80
698;DHT22;331;48.414;9.938;2022-07-25T05:00:34;21.20;78.50
698;DHT22;331;48.414;9.938;2022-07-25T05:03:01;21.20;78.70
698;DHT22;331;48.414;9.938;2022-07-25T05:05:29;21.20;78.70
698;DHT22;331;48.414;9.938;2022-07-25T05:07:57;21.20;78.70
698;DHT22;331;48.414;9.938;2022-07-25T05:10:24;21.20;78.60
698;DHT22;331;48.414;9.938;2022-07-25T05:12:51;21.10;78.50
698;DHT22;331;48.414;9.938;2022-07-25T05:15:18;21.10;78.40
698;DHT22;331;48.414;9.938;2022-07-25T05:17:45;21.10;78.60
698;DHT22;331;48.414;9.938;2022-07-25T05:20:12;21.10;78.90
698;DHT22;331;48.414;9.938;2022-07-25T05:22:41;21.10;79.20
698;DHT22;331;48.414;9.938;2022-07-25T05:25:09;21.10;79.40
698;DHT22;331;48.414;9.938;2022-07-25T05:27:36;21.10;79.40
698;DHT22;331;48.414;9.938;2022-07-25T05:30:06;21.00;80.30
698;DHT22;331;48.414;9.938;2022-07-25T05:32:33;20.80;80.60
698;DHT22;331;48.414;9.938;2022-07-25T05:35:00;20.80;80.80
698;DHT22;331;48.414;9.938;2022-07-25T05:37:27;20.90;81.30
698;DHT22;331;48.414;9.938;2022-07-25T05:39:55;20.90;80.30
698;DHT22;331;48.414;9.938;2022-07-25T05:42:22;20.80;80.80
698;DHT22;331;48.414;9.938;2022-07-25T05:44:49;20.80;80.90
698;DHT22;331;48.414;9.938;2022-07-25T05:47:16;20.80;80.60
698;DHT22;331;48.414;9.938;2022-07-25T05:49:42;20.80;80.60
698;DHT22;331;48.414;9.938;2022-07-25T05:52:10;20.80;80.50
698;DHT22;331;48.414;9.938;2022-07-25T05:54:37;20.80;80.50
698;DHT22;331;48.414;9.938;2022-07-25T05:57:05;20.80;80.80
698;DHT22;331;48.414;9.938;2022-07-25T05:59:32;20.80;80.70
698;DHT22;331;48.414;9.938;2022-07-25T06:01:59;20.80;80.70
698;DHT22;331;48.414;9.938;2022-07-25T06:04:26;20.80;80.70
698;DHT22;331;48.414;9.938;2022-07-25T06:06:53;20.80;80.60
698;DHT22;331;48.414;9.938;2022-07-25T06:09:20;20.80;80.70
698;DHT22;331;48.414;9.938;2022-07-25T06:11:47;20.80;80.80
698;DHT22;331;48.414;9.938;2022-07-25T06:14:16;20.80;81.00
698;DHT22;331;48.414;9.938;2022-07-25T06:16:42;20.80;81.20
698;DHT22;331;48.414;9.938;2022-07-25T06:19:09;20.80;81.20
698;DHT22;331;48.414;9.938;2022-07-25T06:21:36;20.90;81.20
698;DHT22;331;48.414;9.938;2022-07-25T06:24:03;20.90;81.20
698;DHT22;331;48.414;9.938;2022-07-25T06:26:30;20.90;81.20
698;DHT22;331;48.414;9.938;2022-07-25T06:28:57;20.90;81.20
698;DHT22;331;48.414;9.938;2022-07-25T06:31:25;20.90;81.30
698;DHT22;331;48.414;9.938;2022-07-25T06:33:52;21.00;81.30
698;DHT22;331;48.414;9.938;2022-07-25T06:36:19;21.00;81.40
698;DHT22;331;48.414;9.938;2022-07-25T06:38:46;21.00;81.50
698;DHT22;331;48.414;9.938;2022-07-25T06:41:13;21.00;81.60
698;DHT22;331;48.414;9.938;2022-07-25T06:43:41;21.10;81.70
698;DHT22;331;48.414;9.938;2022-07-25T06:46:08;21.10;81.70
698;DHT22;331;48.414;9.938;2022-07-25T06:48:36;21.10;81.80
698;DHT22;331;48.414;9.938;2022-07-25T06:51:03;21.10;81.90
698;DHT22;331;48.414;9.938;2022-07-25T06:53:30;21.10;82.00
698;DHT22;331;48.414;9.938;2022-07-25T06:55:57;21.10;82.00
698;DHT22;331;48.414;9.938;2022-07-25T06:58:24;21.20;82.30
698;DHT22;331;48.414;9.938;2022-07-25T07:00:50;21.20;82.50
698;DHT22;331;48.414;9.938;2022-07-25T07:03:17;21.20;82.70
698;DHT22;331;48.414;9.938;2022-07-25T07:05:46;21.30;82.90
698;DHT22;331;48.414;9.938;2022-07-25T07:08:12;21.30;83.10
698;DHT22;331;48.414;9.938;2022-07-25T07:10:39;21.30;83.20
698;DHT22;331;48.414;9.938;2022-07-25T07:13:08;21.30;83.20
698;DHT22;331;48.414;9.938;2022-07-25T07:15:35;21.30;83.30
698;DHT22;331;48.414;9.938;2022-07-25T07:18:02;21.40;83.40
698;DHT22;331;48.414;9.938;2022-07-25T07:20:29;21.40;83.40
698;DHT22;331;48.414;9.938;2022-07-25T07:22:57;21.40;83.50
698;DHT22;331;48.414;9.938;2022-07-25T07:25:24;21.40;83.60
698;DHT22;331;48.414;9.938;2022-07-25T07:27:51;21.50;83.70
698;DHT22;331;48.414;9.938;2022-07-25T07:30:18;21.50;83.70
698;DHT22;331;48.414;9.938;2022-07-25T07:32:45;21.50;83.80
698;DHT22;331;48.414;9.938;2022-07-25T07:35:12;21.50;83.70
698;DHT22;331;48.414;9.938;2022-07-25T07:37:41;21.60;83.90
698;DHT22;331;48.414;9.938;2022-07-25T07:40:12;21.60;84.00
698;DHT22;331;48.414;9.938;2022-07-25T07:42:40;21.60;83.90
698;DHT22;331;48.414;9.938;2022-07-25T07:45:11;21.60;83.80
698;DHT22;331;48.414;9.938;2022-07-25T07:47:38;21.60;83.80
698;DHT22;331;48.414;9.938;2022-07-25T07:50:06;21.60;83.80
698;DHT22;331;48.414;9.938;2022-07-25T07:52:33;21.60;83.80
698;DHT22;331;48.414;9.938;2022-07-25T07:55:00;21.70;83.80
698;DHT22;331;48.414;9.938;2022-07-25T07:57:46;21.70;83.80
698;DHT22;331;48.414;9.938;2022-07-25T08:00:14;21.70;83.80
698;DHT22;331;48.414;9.938;2022-07-25T08:02:42;21.70;83.90
698;DHT22;331;48.414;9.938;2022-07-25T08:05:09;21.80;83.90
698;DHT22;331;48.414;9.938;2022-07-25T08:07:36;21.80;84.00
698;DHT22;331;48.414;9.938;2022-07-25T08:10:03;21.80;83.90
698;DHT22;331;48.414;9.938;2022-07-25T08:12:30;21.80;83.80
698;DHT22;331;48.414;9.938;2022-07-25T08:14:58;21.80;83.90
698;DHT22;331;48.414;9.938;2022-07-25T08:17:25;21.80;84.00
698;DHT22;331;48.414;9.938;2022-07-25T08:19:52;21.80;84.10
698;DHT22;331;48.414;9.938;2022-07-25T08:22:19;21.90;84.20
698;DHT22;331;48.414;9.938;2022-07-25T08:24:47;21.90;84.90
698;DHT22;331;48.414;9.938;2022-07-25T08:27:14;21.80;84.30
698;DHT22;331;48.414;9.938;2022-07-25T08:29:41;21.90;84.50
698;DHT22;331;48.414;9.938;2022-07-25T08:32:09;21.90;84.90
698;DHT22;331;48.414;9.938;2022-07-25T08:34:36;21.90;84.80
698;DHT22;331;48.414;9.938;2022-07-25T08:37:03;21.90;84.60
698;DHT22;331;48.414;9.938;2022-07-25T08:39:30;22.00;85.00
698;DHT22;331;48.414;9.938;2022-07-25T08:41:57;21.90;84.70
698;DHT22;331;48.414;9.938;2022-07-25T08:44:25;22.00;84.90
698;DHT22;331;48.414;9.938;2022-07-25T08:46:55;22.00;85.00
698;DHT22;331;48.414;9.938;2022-07-25T08:49:25;22.00;85.10
698;DHT22;331;48.414;9.938;2022-07-25T08:51:52;22.00;85.20
698;DHT22;331;48.414;9.938;2022-07-25T08:54:21;22.10;85.70
698;DHT22;331;48.414;9.938;2022-07-25T08:56:48;22.10;85.40
698;DHT22;331;48.414;9.938;2022-07-25T08:59:15;22.10;85.80
698;DHT22;331;48.414;9.938;2022-07-25T09:01:42;22.10;86.20
698;DHT22;331;48.414;9.938;2022-07-25T09:04:09;22.10;85.90
698;DHT22;331;48.414;9.938;2022-07-25T09:06:47;22.20;86.40
698;DHT22;331;48.414;9.938;2022-07-25T09:09:14;22.20;86.40
698;DHT22;331;48.414;9.938;2022-07-25T09:11:41;22.20;86.80
698;DHT22;331;48.414;9.938;2022-07-25T09:14:08;22.20;86.90
698;DHT22;331;48.414;9.938;2022-07-25T09:16:36;22.30;87.20
698;DHT22;331;48.414;9.938;2022-07-25T09:19:06;22.30;87.10
698;DHT22;331;48.414;9.938;2022-07-25T09:21:35;22.30;86.90
698;DHT22;331;48.414;9.938;2022-07-25T09:24:11;22.30;87.00
698;DHT22;331;48.414;9.938;2022-07-25T09:26:42;22.30;87.10
698;DHT22;331;48.414;9.938;2022-07-25T09:29:14;22.40;87.00
698;DHT22;331;48.414;9.938;2022-07-25T09:31:41;22.40;87.00
698;DHT22;331;48.414;9.938;2022-07-25T09:34:08;22.40;87.30
698;DHT22;331;48.414;9.938;2022-07-25T09:36:37;22.40;87.30
698;DHT22;331;48.414;9.938;2022-07-25T09:39:07;22.50;87.40
698;DHT22;331;48.414;9.938;2022-07-25T09:41:36;22.50;87.30
698;DHT22;331;48.414;9.938;2022-07-25T09:44:13;22.50;87.20
698;DHT22;331;48.414;9.938;2022-07-25T09:46:40;22.50;87.20
698;DHT22;331;48.414;9.938;2022-07-25T09:49:08;22.60;87.30
698;DHT22;331;48.414;9.938;2022-07-25T09:51:38;22.60;87.50
698;DHT22;331;48.414;9.938;2022-07-25T09:54:05;22.60;87.20
698;DHT22;331;48.414;9.938;2022-07-25T09:56:32;22.60;87.50
698;DHT22;331;48.414;9.938;2022-07-25T09:59:01;22.70;87.40
698;DHT22;331;48.414;9.938;2022-07-25T10:01:32;22.70;87.20
698;DHT22;331;48.414;9.938;2022-07-25T10:04:03;22.70;87.30
698;DHT22;331;48.414;9.938;2022-07-25T10:06:36;22.80;87.10
698;DHT22;331;48.414;9.938;2022-07-25T10:09:09;22.80;87.10
698;DHT22;331;48.414;9.938;2022-07-25T10:11:36;22.80;87.00
698;DHT22;331;48.414;9.938;2022-07-25T10:14:09;22.80;87.10
698;DHT22;331;48.414;9.938;2022-07-25T10:16:43;22.90;86.90
698;DHT22;331;48.414;9.938;2022-07-25T10:19:11;22.90;86.90
698;DHT22;331;48.414;9.938;2022-07-25T10:21:38;22.90;86.70
698;DHT22;331;48.414;9.938;2022-07-25T10:24:06;23.00;86.60
698;DHT22;331;48.414;9.938;2022-07-25T10:26:34;23.00;86.70
698;DHT22;331;48.414;9.938;2022-07-25T10:29:06;23.00;86.60
698;DHT22;331;48.414;9.938;2022-07-25T10:31:35;23.00;86.40
698;DHT22;331;48.414;9.938;2022-07-25T10:34:04;23.10;86.40
698;DHT22;331;48.414;9.938;2022-07-25T10:36:40;23.10;86.60
698;DHT22;331;48.414;9.938;2022-07-25T10:39:08;23.10;86.40
698;DHT22;331;48.414;9.938;2022-07-25T10:41:37;23.20;86.40
698;DHT22;331;48.414;9.938;2022-07-25T10:44:09;23.20;86.50
698;DHT22;331;48.414;9.938;2022-07-25T10:46:38;23.20;86.40
698;DHT22;331;48.414;9.938;2022-07-25T10:49:06;23.20;86.50
698;DHT22;331;48.414;9.938;2022-07-25T10:51:33;23.30;86.30
698;DHT22;331;48.414;9.938;2022-07-25T10:54:10;23.40;85.90
698;DHT22;331;48.414;9.938;2022-07-25T10:56:49;23.40;86.10
698;DHT22;331;48.414;9.938;2022-07-25T10:59:23;23.40;86.10
698;DHT22;331;48.414;9.938;2022-07-25T11:01:52;23.40;86.20
698;DHT22;331;48.414;9.938;2022-07-25T11:04:19;23.50;86.20
698;DHT22;331;48.414;9.938;2022-07-25T11:06:46;23.50;85.90
698;DHT22;331;48.414;9.938;2022-07-25T11:09:14;23.60;85.60
698;DHT22;331;48.414;9.938;2022-07-25T11:11:42;23.60;85.40
698;DHT22;331;48.414;9.938;2022-07-25T11:14:13;23.70;85.30
698;DHT22;331;48.414;9.938;2022-07-25T11:16:40;23.80;85.10
698;DHT22;331;48.414;9.938;2022-07-25T11:22:10;23.80;85.50
698;DHT22;331;48.414;9.938;2022-07-25T11:24:38;23.80;85.40
698;DHT22;331;48.414;9.938;2022-07-25T11:27:06;23.80;85.40
698;DHT22;331;48.414;9.938;2022-07-25T11:29:34;23.90;85.50
698;DHT22;331;48.414;9.938;2022-07-25T11:32:02;24.00;85.00
698;DHT22;331;48.414;9.938;2022-07-25T11:34:30;24.00;84.60
698;DHT22;331;48.414;9.938;2022-07-25T11:36:58;24.00;84.90
698;DHT22;331;48.414;9.938;2022-07-25T11:39:28;24.00;85.20
698;DHT22;331;48.414;9.938;2022-07-25T11:41:58;24.10;85.30
698;DHT22;331;48.414;9.938;2022-07-25T11:44:29;24.10;85.20
698;DHT22;331;48.414;9.938;2022-07-25T11:46:56;24.20;85.30
698;DHT22;331;48.414;9.938;2022-07-25T11:49:23;24.20;85.20
698;DHT22;331;48.414;9.938;2022-07-25T11:51:50;24.20;85.30
698;DHT22;331;48.414;9.938;2022-07-25T11:54:17;24.30;85.20
698;DHT22;331;48.414;9.938;2022-07-25T11:56:45;24.30;85.20
698;DHT22;331;48.414;9.938;2022-07-25T11:59:12;24.40;85.30
698;DHT22;331;48.414;9.938;2022-07-25T12:01:40;24.40;85.40
698;DHT22;331;48.414;9.938;2022-07-25T12:04:11;24.50;85.00
698;DHT22;331;48.414;9.938;2022-07-25T12:06:38;24.60;84.80
698;DHT22;331;48.414;9.938;2022-07-25T12:11:32;24.70;84.20
698;DHT22;331;48.414;9.938;2022-07-25T12:14:02;24.70;84.90
698;DHT22;331;48.414;9.938;2022-07-25T12:16:30;24.70;84.90
698;DHT22;331;48.414;9.938;2022-07-25T12:18:57;24.80;85.40
698;DHT22;331;48.414;9.938;2022-07-25T12:21:24;24.80;85.40
698;DHT22;331;48.414;9.938;2022-07-25T12:23:51;24.90;85.30
698;DHT22;331;48.414;9.938;2022-07-25T12:26:17;24.90;85.10
698;DHT22;331;48.414;9.938;2022-07-25T12:28:44;25.00;85.20
698;DHT22;331;48.414;9.938;2022-07-25T12:31:13;25.00;84.80
698;DHT22;331;48.414;9.938;2022-07-25T12:33:42;25.20;84.30
698;DHT22;331;48.414;9.938;2022-07-25T12:36:10;25.20;84.80
698;DHT22;331;48.414;9.938;2022-07-25T12:38:37;25.20;84.80
698;DHT22;331;48.414;9.938;2022-07-25T12:41:04;25.30;84.60
698;DHT22;331;48.414;9.938;2022-07-25T12:45:58;25.40;83.70
698;DHT22;331;48.414;9.938;2022-07-25T12:48:26;25.50;83.90
698;DHT22;331;48.414;9.938;2022-07-25T12:50:53;25.60;83.90
698;DHT22;331;48.414;9.938;2022-07-25T12:53:20;25.60;84.10
698;DHT22;331;48.414;9.938;2022-07-25T12:55:48;25.60;84.20
698;DHT22;331;48.414;9.938;2022-07-25T12:58:15;25.70;84.10
698;DHT22;331;48.414;9.938;2022-07-25T13:00:42;25.80;83.90
698;DHT22;331;48.414;9.938;2022-07-25T13:03:11;25.90;83.50
698;DHT22;331;48.414;9.938;2022-07-25T13:05:39;26.00;83.30
698;DHT22;331;48.414;9.938;2022-07-25T13:08:06;26.00;83.00
698;DHT22;331;48.414;9.938;2022-07-25T13:10:33;26.10;83.20
698;DHT22;331;48.414;9.938;2022-07-25T13:13:00;26.10;83.70
698;DHT22;331;48.414;9.938;2022-07-25T13:15:27;26.10;83.70
698;DHT22;331;48.414;9.938;2022-07-25T13:17:54;26.20;83.30
698;DHT22;331;48.414;9.938;2022-07-25T13:20:21;26.30;83.50
698;DHT22;331;48.414;9.938;2022-07-25T13:22:50;26.30;83.70
698;DHT22;331;48.414;9.938;2022-07-25T13:25:17;26.40;83.70
698;DHT22;331;48.414;9.938;2022-07-25T13:27:44;26.50;83.20
698;DHT22;331;48.414;9.938;2022-07-25T13:30:12;26.50;83.10
698;DHT22;331;48.414;9.938;2022-07-25T13:32:39;26.60;83.20
698;DHT22;331;48.414;9.938;2022-07-25T13:35:07;26.60;83.20
698;DHT22;331;48.414;9.938;2022-07-25T13:37:34;26.70;82.90
698;DHT22;331;48.414;9.938;2022-07-25T13:40:02;26.80;82.60
698;DHT22;331;48.414;9.938;2022-07-25T13:42:29;26.80;82.10
698;DHT22;331;48.414;9.938;2022-07-25T13:47:23;26.90;81.70
698;DHT22;331;48.414;9.938;2022-07-25T13:49:50;27.00;82.10
698;DHT22;331;48.414;9.938;2022-07-25T13:52:17;27.30;79.90
698;DHT22;331;48.414;9.938;2022-07-25T13:54:44;27.30;80.70
698;DHT22;331;48.414;9.938;2022-07-25T13:57:12;27.30;80.40
698;DHT22;331;48.414;9.938;2022-07-25T13:59:39;27.30;80.80
698;DHT22;331;48.414;9.938;2022-07-25T14:02:06;27.30;80.70
698;DHT22;331;48.414;9.938;2022-07-25T14:04:33;27.30;80.50
698;DHT22;331;48.414;9.938;2022-07-25T14:07:00;27.30;80.90
698;DHT22;331;48.414;9.938;2022-07-25T14:09:27;27.30;80.20
698;DHT22;331;48.414;9.938;2022-07-25T14:11:54;27.30;80.70
698;DHT22;331;48.414;9.938;2022-07-25T14:14:22;27.40;81.20
698;DHT22;331;48.414;9.938;2022-07-25T14:16:49;27.40;81.10
698;DHT22;331;48.414;9.938;2022-07-25T14:19:17;27.40;81.10
698;DHT22;331;48.414;9.938;2022-07-25T14:21:45;27.40;80.90
698;DHT22;331;48.414;9.938;2022-07-25T14:24:12;27.50;80.40
698;DHT22;331;48.414;9.938;2022-07-25T14:26:38;27.50;79.90
698;DHT22;331;48.414;9.938;2022-07-25T14:29:05;27.60;76.00
698;DHT22;331;48.414;9.938;2022-07-25T14:31:37;27.80;77.10
698;DHT22;331;48.414;9.938;2022-07-25T14:34:05;27.90;76.50
698;DHT22;331;48.414;9.938;2022-07-25T14:36:32;27.90;77.00
698;DHT22;331;48.414;9.938;2022-07-25T14:39:00;27.90;77.60
698;DHT22;331;48.414;9.938;2022-07-25T14:41:27;27.90;78.00
698;DHT22;331;48.414;9.938;2022-07-25T14:43:54;27.90;77.40
698;DHT22;331;48.414;9.938;2022-07-25T14:46:21;27.90;77.50
698;DHT22;331;48.414;9.938;2022-07-25T14:48:49;27.90;78.60
698;DHT22;331;48.414;9.938;2022-07-25T14:51:17;27.90;77.90
698;DHT22;331;48.414;9.938;2022-07-25T14:53:44;28.00;75.60
698;DHT22;331;48.414;9.938;2022-07-25T14:56:11;28.00;74.10
698;DHT22;331;48.414;9.938;2022-07-25T14:58:38;28.00;73.80
698;DHT22;331;48.414;9.938;2022-07-25T15:01:05;28.00;73.10
698;DHT22;331;48.414;9.938;2022-07-25T15:03:33;28.00;72.90
698;DHT22;331;48.414;9.938;2022-07-25T15:06:01;28.00;72.00
698;DHT22;331;48.414;9.938;2022-07-25T15:08:28;28.10;71.50
698;DHT22;331;48.414;9.938;2022-07-25T15:10:57;28.10;71.30
698;DHT22;331;48.414;9.938;2022-07-25T15:13:24;28.10;70.20
698;DHT22;331;48.414;9.938;2022-07-25T15:15:51;28.10;69.40
698;DHT22;331;48.414;9.938;2022-07-25T15:18:18;28.30;68.20
698;DHT22;331;48.414;9.938;2022-07-25T15:20:45;28.30;69.00
698;DHT22;331;48.414;9.938;2022-07-25T15:23:14;28.30;69.40
698;DHT22;331;48.414;9.938;2022-07-25T15:25:41;28.30;69.30
698;DHT22;331;48.414;9.938;2022-07-25T15:28:08;28.30;68.50
698;DHT22;331;48.414;9.938;2022-07-25T15:30:35;28.30;67.90
698;DHT22;331;48.414;9.938;2022-07-25T15:33:02;28.30;68.30
698;DHT22;331;48.414;9.938;2022-07-25T15:35:29;28.30;67.70
698;DHT22;331;48.414;9.938;2022-07-25T15:37:56;28.30;68.20
698;DHT22;331;48.414;9.938;2022-07-25T15:40:24;28.40;67.90
698;DHT22;331;48.414;9.938;2022-07-25T15:42:51;28.30;68.00
698;DHT22;331;48.414;9.938;2022-07-25T15:45:18;28.40;68.40
698;DHT22;331;48.414;9.938;2022-07-25T15:47:47;28.40;68.40
698;DHT22;331;48.414;9.938;2022-07-25T15:50:13;28.40;68.50
698;DHT22;331;48.414;9.938;2022-07-25T15:52:40;28.40;68.70
698;DHT22;331;48.414;9.938;2022-07-25T15:55:07;28.40;68.40
698;DHT22;331;48.414;9.938;2022-07-25T15:57:35;28.40;67.80
698;DHT22;331;48.414;9.938;2022-07-25T16:00:02;28.40;67.80
698;DHT22;331;48.414;9.938;2022-07-25T16:02:33;28.50;67.80
698;DHT22;331;48.414;9.938;2022-07-25T16:05:00;28.50;67.10
698;DHT22;331;48.414;9.938;2022-07-25T16:07:27;28.60;66.80
698;DHT22;331;48.414;9.938;2022-07-25T16:09:54;28.60;67.40
698;DHT22;331;48.414;9.938;2022-07-25T16:12:21;28.60;67.30
698;DHT22;331;48.414;9.938;2022-07-25T16:14:50;28.70;67.00
698;DHT22;331;48.414;9.938;2022-07-25T16:17:17;28.70;67.50
698;DHT22;331;48.414;9.938;2022-07-25T16:19:44;28.70;66.90
698;DHT22;331;48.414;9.938;2022-07-25T16:22:11;28.70;66.50
698;DHT22;331;48.414;9.938;2022-07-25T16:24:38;28.80;67.70
698;DHT22;331;48.414;9.938;2022-07-25T16:27:05;28.80;68.80
698;DHT22;331;48.414;9.938;2022-07-25T16:29:32;28.80;67.60
698;DHT22;331;48.414;9.938;2022-07-25T16:32:01;28.80;68.20
698;DHT22;331;48.414;9.938;2022-07-25T16:34:27;28.80;67.80
698;DHT22;331;48.414;9.938;2022-07-25T16:36:54;28.90;67.60
698;DHT22;331;48.414;9.938;2022-07-25T16:39:21;28.90;67.50
698;DHT22;331;48.414;9.938;2022-07-25T16:41:48;28.90;67.90
698;DHT22;331;48.414;9.938;2022-07-25T16:44:15;28.90;67.60
698;DHT22;331;48.414;9.938;2022-07-25T16:46:42;28.90;67.80
698;DHT22;331;48.414;9.938;2022-07-25T16:49:12;28.90;68.20